Time;durP1;ratioP1;P1;durP2;ratioP2;P2;SDS_P1;SDS_P2;PMS_P1;PMS_P2;Temp;Humidity;BMP_temperature;BMP_pressure;BME280_temperature;BME280_humidity;BME280_pressure;Samples;Min_cycle;Max_cycle;Signal;HPM_P1;HPM_P2
2023/12/06 00:01:02;;;;;;;11.80;5.63;;;;;;;4.03;100.00;94844.53;4993709;28;20224;-74
2023/12/06 00:03:28;;;;;;;11.73;5.40;;;;;;;4.15;100.00;94834.66;4993793;28;20833;-74
2023/12/06 00:05:54;;;;;;;11.67;5.60;;;;;;;4.05;100.00;94834.84;4965594;28;20326;-74
2023/12/06 00:08:19;;;;;;;11.87;5.50;;;;;;;4.01;100.00;94839.50;4993164;28;20266;-74
2023/12/06 00:10:45;;;;;;;9.77;4.93;;;;;;;4.12;100.00;94829.81;4970044;28;20250;-73
2023/12/06 00:13:10;;;;;;;10.03;5.13;;;;;;;4.15;100.00;94839.84;4963257;28;20260;-73
2023/12/06 00:15:36;;;;;;;11.40;5.40;;;;;;;4.19;100.00;94839.34;4973467;28;20240;-73
2023/12/06 00:18:02;;;;;;;11.47;5.70;;;;;;;4.23;100.00;94832.09;4978687;28;20315;-74
2023/12/06 00:20:27;;;;;;;10.30;5.23;;;;;;;4.20;100.00;94838.41;4978219;28;20223;-73
2023/12/06 00:22:53;;;;;;;10.57;5.57;;;;;;;4.14;100.00;94838.22;4966214;28;20633;-74
2023/12/06 00:25:20;;;;;;;10.87;5.70;;;;;;;4.17;100.00;94840.50;4973920;28;20294;-74
2023/12/06 00:27:45;;;;;;;9.70;5.30;;;;;;;4.07;100.00;94825.94;4991856;28;20327;-75
2023/12/06 00:30:11;;;;;;;10.90;5.03;;;;;;;4.16;100.00;94824.13;4983287;28;20254;-74
2023/12/06 00:32:36;;;;;;;10.83;5.10;;;;;;;4.23;100.00;94816.56;4964313;28;20239;-74
2023/12/06 00:35:03;;;;;;;9.17;5.30;;;;;;;4.07;100.00;94820.75;4975191;28;20235;-75
2023/12/06 00:37:29;;;;;;;8.77;4.80;;;;;;;4.24;100.00;94820.75;4960808;28;20763;-73
2023/12/06 00:39:54;;;;;;;9.87;4.90;;;;;;;4.20;100.00;94817.69;4978003;28;20266;-75
2023/12/06 00:42:20;;;;;;;11.60;5.60;;;;;;;4.38;100.00;94818.28;4954477;28;20244;-74
2023/12/06 00:44:46;;;;;;;8.00;4.67;;;;;;;4.41;100.00;94814.56;4977388;28;20322;-78
2023/12/06 00:47:11;;;;;;;10.97;5.40;;;;;;;4.48;100.00;94805.16;4981457;28;20227;-78
2023/12/06 00:49:37;;;;;;;9.63;5.07;;;;;;;4.51;100.00;94813.44;4980485;28;21142;-77
2023/12/06 00:52:03;;;;;;;10.37;5.20;;;;;;;4.56;100.00;94816.31;4961352;28;20231;-78
2023/12/06 00:54:28;;;;;;;12.67;5.53;;;;;;;4.65;100.00;94819.72;4960088;28;20938;-79
2023/12/06 00:56:54;;;;;;;9.40;5.40;;;;;;;4.61;100.00;94808.84;4974679;28;21137;-79
2023/12/06 00:59:19;;;;;;;11.20;5.27;;;;;;;4.55;100.00;94804.34;4980896;28;20994;-78
2023/12/06 01:01:45;;;;;;;9.90;5.40;;;;;;;4.58;100.00;94804.03;4975417;28;20227;-78
2023/12/06 01:04:11;;;;;;;9.63;5.27;;;;;;;4.58;100.00;94795.44;4975618;28;20307;-79
2023/12/06 01:06:36;;;;;;;9.87;5.40;;;;;;;4.59;100.00;94803.03;4975791;28;20242;-79
2023/12/06 01:09:03;;;;;;;10.03;5.10;;;;;;;4.50;100.00;94798.84;4974420;28;20247;-78
2023/12/06 01:11:28;;;;;;;10.23;5.70;;;;;;;4.57;100.00;94797.22;4959907;28;20236;-78
2023/12/06 01:13:54;;;;;;;12.40;6.30;;;;;;;4.43;100.00;94794.47;4972020;28;20231;-78
2023/12/06 01:16:20;;;;;;;14.63;7.53;;;;;;;4.59;100.00;94799.63;4981247;28;20262;-78
2023/12/06 01:18:45;;;;;;;30.17;13.83;;;;;;;4.59;100.00;94791.84;4981658;28;20239;-79
2023/12/06 01:21:11;;;;;;;23.57;10.53;;;;;;;4.65;100.00;94786.81;4981343;28;20335;-78
2023/12/06 01:23:37;;;;;;;11.93;6.20;;;;;;;4.62;100.00;94781.97;4964534;28;20231;-78
2023/12/06 01:26:02;;;;;;;10.30;5.40;;;;;;;4.68;100.00;94783.88;4959196;28;20332;-79
2023/12/06 01:28:28;;;;;;;10.60;5.23;;;;;;;4.66;100.00;94772.06;4979756;28;20235;-80
2023/12/06 01:30:53;;;;;;;14.20;6.97;;;;;;;4.69;100.00;94771.72;4980520;28;20242;-78
2023/12/06 01:33:19;;;;;;;21.60;9.37;;;;;;;4.65;100.00;94773.06;4965096;28;20285;-80
2023/12/06 01:35:45;;;;;;;25.47;10.77;;;;;;;4.67;100.00;94763.31;4976987;28;20280;-78
2023/12/06 01:38:10;;;;;;;19.03;9.43;;;;;;;4.67;100.00;94774.50;4976979;28;20230;-74
2023/12/06 01:40:36;;;;;;;22.03;8.67;;;;;;;4.60;100.00;94765.78;4958223;28;20818;-74
2023/12/06 01:43:02;;;;;;;24.07;10.93;;;;;;;4.61;100.00;94763.97;4975613;28;20373;-74
2023/12/06 01:45:28;;;;;;;23.77;10.33;;;;;;;4.52;100.00;94759.81;4989985;28;20234;-74
2023/12/06 01:47:54;;;;;;;13.27;6.70;;;;;;;4.48;100.00;94753.34;4964834;28;20441;-74
2023/12/06 01:50:23;;;;;;;10.77;5.57;;;;;;;4.56;100.00;94750.75;4960052;28;20354;-74
2023/12/06 01:52:48;;;;;;;12.93;6.00;;;;;;;4.68;100.00;94752.00;4974104;28;20291;-74
2023/12/06 01:55:14;;;;;;;10.37;5.30;;;;;;;4.65;100.00;94740.19;4957760;28;20724;-74
2023/12/06 01:57:39;;;;;;;15.50;7.83;;;;;;;4.75;100.00;94745.94;4946468;28;20672;-74
2023/12/06 02:00:07;;;;;;;15.70;7.57;;;;;;;4.73;100.00;94741.91;4930811;28;20661;-79
2023/12/06 02:02:32;;;;;;;22.93;10.33;;;;;;;4.66;100.00;94741.78;4960964;28;20671;-79
2023/12/06 02:04:58;;;;;;;14.50;6.87;;;;;;;4.59;100.00;94740.03;4974612;28;20238;-78
2023/12/06 02:07:23;;;;;;;11.43;6.20;;;;;;;4.67;100.00;94727.03;4965848;28;20321;-78
2023/12/06 02:09:49;;;;;;;9.87;5.07;;;;;;;4.69;100.00;94730.25;4960256;28;20235;-78
2023/12/06 02:12:15;;;;;;;11.50;5.87;;;;;;;4.66;100.00;94726.22;4960753;28;20338;-78
2023/12/06 02:14:40;;;;;;;10.57;5.50;;;;;;;4.67;100.00;94732.22;4972535;28;20235;-78
2023/12/06 02:17:06;;;;;;;13.47;5.70;;;;;;;4.71;100.00;94733.50;4976125;28;20358;-77
2023/12/06 02:19:31;;;;;;;9.20;4.93;;;;;;;4.69;100.00;94725.09;4974694;28;20232;-79
2023/12/06 02:21:58;;;;;;;10.43;5.10;;;;;;;4.74;100.00;94733.16;4941664;28;20233;-78
2023/12/06 02:24:25;;;;;;;13.83;6.60;;;;;;;4.75;100.00;94724.41;4933267;28;20287;-77
2023/12/06 02:26:52;;;;;;;16.03;7.03;;;;;;;4.78;100.00;94724.06;4937402;28;20240;-78
2023/12/06 02:29:18;;;;;;;11.50;5.63;;;;;;;4.78;100.00;94722.28;4944944;28;20794;-78
2023/12/06 02:31:44;;;;;;;11.07;4.73;;;;;;;4.81;100.00;94723.72;4961055;28;20774;-78
2023/12/06 02:34:11;;;;;;;8.93;4.80;;;;;;;4.85;100.00;94721.63;4946671;28;20315;-78
2023/12/06 02:36:37;;;;;;;11.17;5.40;;;;;;;4.84;100.00;94720.81;4936860;28;20237;-79
2023/12/06 02:39:04;;;;;;;17.40;9.20;;;;;;;4.88;100.00;94719.47;4953719;28;20252;-78
2023/12/06 02:41:30;;;;;;;13.97;6.83;;;;;;;4.91;100.00;94713.97;4925307;28;20797;-79
2023/12/06 02:43:55;;;;;;;10.43;5.47;;;;;;;4.86;100.00;94711.06;4945026;28;20232;-78
2023/12/06 02:46:21;;;;;;;29.00;12.97;;;;;;;4.95;100.00;94714.41;4970205;28;20940;-74
2023/12/06 02:48:47;;;;;;;15.87;7.50;;;;;;;4.97;100.00;94717.69;4952629;28;20268;-73
2023/12/06 02:51:12;;;;;;;13.20;6.20;;;;;;;4.91;100.00;94711.38;4954779;28;20240;-74
2023/12/06 02:53:38;;;;;;;16.47;6.83;;;;;;;4.97;100.00;94708.09;4953948;28;20626;-74
2023/12/06 02:56:04;;;;;;;16.77;7.40;;;;;;;4.93;100.00;94704.22;4952780;28;20315;-74
2023/12/06 02:58:29;;;;;;;10.50;5.60;;;;;;;5.00;100.00;94699.16;4936772;28;20239;-73
2023/12/06 03:00:55;;;;;;;13.83;5.90;;;;;;;5.00;100.00;94704.34;4928505;28;20236;-74
2023/12/06 03:03:20;;;;;;;10.83;5.50;;;;;;;5.01;100.00;94700.78;4935404;28;20227;-73
2023/12/06 03:05:46;;;;;;;14.13;6.87;;;;;;;4.97;100.00;94700.31;4952814;28;21057;-74
2023/12/06 03:08:14;;;;;;;13.63;6.30;;;;;;;4.95;100.00;94691.91;4951877;28;20808;-74
2023/12/06 03:10:40;;;;;;;12.27;6.37;;;;;;;4.85;100.00;94690.50;4987541;28;20889;-74
2023/12/06 03:13:06;;;;;;;8.37;4.80;;;;;;;4.86;100.00;94695.53;4972413;28;20320;-73
2023/12/06 03:15:31;;;;;;;11.93;5.97;;;;;;;4.98;100.00;94693.34;4977093;28;20231;-74
2023/12/06 03:17:57;;;;;;;13.30;6.50;;;;;;;5.02;100.00;94692.81;4988852;28;20231;-73
2023/12/06 03:20:23;;;;;;;15.47;8.23;;;;;;;5.03;100.00;94691.88;4974920;28;20252;-74
2023/12/06 03:22:48;;;;;;;14.27;7.73;;;;;;;5.05;100.00;94689.09;4976607;28;20231;-79
2023/12/06 03:25:14;;;;;;;48.47;22.47;;;;;;;4.91;100.00;94682.03;4973505;28;20227;-80
2023/12/06 03:27:42;;;;;;;81.63;33.93;;;;;;;4.96;100.00;94679.75;4972081;28;20326;-78
2023/12/06 03:30:08;;;;;;;56.77;24.23;;;;;;;5.04;100.00;94683.09;4973804;28;20333;-79
2023/12/06 03:32:33;;;;;;;71.63;29.67;;;;;;;4.99;100.00;94684.59;4985826;28;20242;-78
2023/12/06 03:34:59;;;;;;;52.60;21.27;;;;;;;5.07;100.00;94676.75;4972138;28;20314;-79
2023/12/06 03:37:24;;;;;;;106.53;40.13;;;;;;;5.01;100.00;94675.66;4951587;28;20916;-79
2023/12/06 03:39:50;;;;;;;35.07;14.07;;;;;;;4.97;100.00;94676.97;4983895;28;20231;-78
2023/12/06 03:42:15;;;;;;;23.63;9.30;;;;;;;4.93;100.00;94680.91;4977265;28;20267;-78
2023/12/06 03:44:41;;;;;;;57.27;23.53;;;;;;;4.95;100.00;94678.94;4976833;28;20260;-79
2023/12/06 03:47:06;;;;;;;51.37;21.53;;;;;;;5.00;100.00;94683.59;4974995;28;20907;-78
2023/12/06 03:49:32;;;;;;;34.00;12.47;;;;;;;4.89;100.00;94686.59;4977734;28;20315;-78
2023/12/06 03:51:58;;;;;;;44.47;16.90;;;;;;;4.96;100.00;94685.75;4978693;28;20238;-78
2023/12/06 03:54:23;;;;;;;38.93;15.67;;;;;;;4.98;100.00;94680.38;4976293;28;20693;-77
2023/12/06 03:56:50;;;;;;;173.37;51.47;;;;;;;4.98;100.00;94683.78;4975613;28;20232;-78
2023/12/06 03:59:15;;;;;;;255.90;63.30;;;;;;;4.92;100.00;94689.63;4994349;28;20231;-78
2023/12/06 04:01:44;;;;;;;81.63;24.20;;;;;;;4.93;100.00;94683.50;4978310;28;20239;-78
2023/12/06 04:04:11;;;;;;;138.10;38.90;;;;;;;4.91;100.00;94679.44;4979992;28;20234;-78
2023/12/06 04:06:37;;;;;;;62.67;21.73;;;;;;;4.98;100.00;94683.78;4981894;28;20243;-76
2023/12/06 04:09:03;;;;;;;11.87;5.80;;;;;;;4.94;100.00;94679.94;4990559;28;20236;-79
2023/12/06 04:11:28;;;;;;;18.00;7.33;;;;;;;4.93;100.00;94686.09;4983414;28;20237;-78
2023/12/06 04:13:54;;;;;;;28.83;11.57;;;;;;;4.88;100.00;94672.81;4978289;28;20232;-78
2023/12/06 04:16:19;;;;;;;22.67;9.00;;;;;;;4.99;100.00;94669.81;4959321;28;20601;-77
2023/12/06 04:18:45;;;;;;;14.63;6.13;;;;;;;4.83;100.00;94677.69;4989772;28;20235;-78
2023/12/06 04:21:11;;;;;;;9.03;5.20;;;;;;;4.80;100.00;94675.44;4978537;28;20237;-78
2023/12/06 04:23:36;;;;;;;12.83;5.87;;;;;;;4.84;100.00;94670.75;4977901;28;20251;-78
2023/12/06 04:26:02;;;;;;;12.17;5.90;;;;;;;4.87;100.00;94675.59;4977700;28;20293;-78
2023/12/06 04:28:27;;;;;;;23.87;9.03;;;;;;;4.97;100.00;94668.41;4993514;28;20289;-78
2023/12/06 04:30:53;;;;;;;64.20;23.73;;;;;;;4.85;100.00;94667.19;4980789;28;20257;-79
2023/12/06 04:33:19;;;;;;;71.60;29.57;;;;;;;4.97;100.00;94674.38;4975413;28;20256;-73
2023/12/06 04:35:44;;;;;;;31.53;16.50;;;;;;;4.92;100.00;94679.28;4965335;28;20310;-74
2023/12/06 04:38:10;;;;;;;20.77;11.70;;;;;;;5.00;100.00;94681.81;4992818;28;20232;-74
2023/12/06 04:40:35;;;;;;;31.73;17.47;;;;;;;4.89;100.00;94679.63;4976670;28;20266;-75
2023/12/06 04:43:01;;;;;;;40.23;20.70;;;;;;;5.08;100.00;94676.59;4960656;28;20320;-74
2023/12/06 04:45:27;;;;;;;21.93;12.57;;;;;;;5.06;100.00;94677.75;4978359;28;20231;-74
2023/12/06 04:47:52;;;;;;;24.37;12.93;;;;;;;5.06;100.00;94688.13;4975194;28;20251;-78
2023/12/06 04:50:18;;;;;;;15.20;8.13;;;;;;;4.97;100.00;94676.19;4974016;28;20779;-79
2023/12/06 04:52:44;;;;;;;17.60;9.13;;;;;;;4.87;100.00;94680.78;4976444;28;20235;-78
2023/12/06 04:55:10;;;;;;;16.37;8.10;;;;;;;4.86;100.00;94684.34;4979839;28;20223;-78
2023/12/06 04:57:36;;;;;;;22.93;12.13;;;;;;;4.82;100.00;94678.69;4964824;28;20793;-79
2023/12/06 05:00:04;;;;;;;17.73;9.47;;;;;;;4.95;100.00;94683.31;4971604;28;20235;-79
2023/12/06 05:02:29;;;;;;;18.77;9.50;;;;;;;4.86;100.00;94674.78;4971121;28;20243;-78
2023/12/06 05:04:55;;;;;;;13.27;7.30;;;;;;;5.01;100.00;94678.25;4972643;28;20382;-78
2023/12/06 05:07:21;;;;;;;13.60;6.43;;;;;;;4.91;100.00;94671.66;4960422;28;20320;-78
2023/12/06 05:09:47;;;;;;;16.90;9.10;;;;;;;5.05;100.00;94674.34;4968137;28;20266;-79
2023/12/06 05:12:12;;;;;;;16.70;9.40;;;;;;;4.90;100.00;94672.63;4975638;28;20240;-80
2023/12/06 05:14:38;;;;;;;15.80;7.63;;;;;;;4.93;100.00;94667.94;4956471;28;20246;-80
2023/12/06 05:17:04;;;;;;;21.63;10.23;;;;;;;5.04;100.00;94666.75;4957554;28;20315;-78
2023/12/06 05:19:29;;;;;;;15.93;7.93;;;;;;;4.97;100.00;94671.00;4975763;28;20220;-79
2023/12/06 05:21:55;;;;;;;26.47;12.07;;;;;;;5.00;100.00;94666.25;4986334;28;20267;-78
2023/12/06 05:24:21;;;;;;;28.30;11.57;;;;;;;4.99;100.00;94672.41;4974321;28;20232;-78
2023/12/06 05:26:46;;;;;;;14.67;8.03;;;;;;;4.98;100.00;94667.41;4978196;28;20296;-74
2023/12/06 05:29:12;;;;;;;14.67;7.67;;;;;;;5.03;100.00;94665.94;4979329;28;20750;-74
2023/12/06 05:31:37;;;;;;;12.27;7.10;;;;;;;4.94;100.00;94674.75;4982583;28;20403;-73
2023/12/06 05:34:04;;;;;;;10.17;5.20;;;;;;;4.97;100.00;94666.59;4997113;28;20769;-79
2023/12/06 05:36:29;;;;;;;10.10;5.53;;;;;;;4.94;100.00;94669.56;4969487;28;20235;-79
2023/12/06 05:38:55;;;;;;;11.33;5.90;;;;;;;5.00;100.00;94663.66;4977713;28;20693;-78
2023/12/06 05:41:21;;;;;;;8.83;5.30;;;;;;;5.11;100.00;94662.47;4962981;28;20285;-78
2023/12/06 05:43:46;;;;;;;12.60;5.10;;;;;;;5.12;100.00;94664.88;4973636;28;20715;-80
2023/12/06 05:46:15;;;;;;;9.20;4.83;;;;;;;4.98;100.00;94668.22;4991057;28;21366;-79
2023/12/06 05:48:41;;;;;;;8.97;5.17;;;;;;;4.92;100.00;94666.31;4970146;28;20250;-79
2023/12/06 05:51:06;;;;;;;9.23;5.37;;;;;;;4.93;100.00;94662.75;4973794;28;20675;-79
2023/12/06 05:53:32;;;;;;;12.17;5.80;;;;;;;5.07;100.00;94656.81;4976741;28;20259;-79
2023/12/06 05:55:57;;;;;;;12.53;6.50;;;;;;;5.01;100.00;94652.34;4978993;28;20871;-78
2023/12/06 05:58:23;;;;;;;11.67;6.10;;;;;;;4.98;100.00;94663.03;4980967;28;20383;-78
2023/12/06 06:00:49;;;;;;;11.40;5.43;;;;;;;4.85;100.00;94660.19;4956647;28;20738;-78
2023/12/06 06:03:14;;;;;;;11.43;6.20;;;;;;;4.87;100.00;94666.03;4991008;28;20264;-74
2023/12/06 06:05:40;;;;;;;10.97;5.93;;;;;;;5.02;100.00;94669.50;4963776;28;20314;-74
2023/12/06 06:08:05;;;;;;;9.67;5.47;;;;;;;4.99;100.00;94662.03;4988811;28;20329;-73
2023/12/06 06:10:31;;;;;;;9.23;5.33;;;;;;;5.03;100.00;94665.94;4989609;28;20309;-73
2023/12/06 06:12:57;;;;;;;10.27;5.37;;;;;;;5.05;100.00;94658.78;4990544;28;20762;-74
2023/12/06 06:15:23;;;;;;;32.37;14.07;;;;;;;5.03;100.00;94670.31;4975825;28;20238;-74
2023/12/06 06:17:48;;;;;;;37.90;24.13;;;;;;;5.00;100.00;94670.63;4989241;28;20243;-80
2023/12/06 06:20:14;;;;;;;108.73;54.93;;;;;;;4.98;100.00;94670.00;4974650;28;20235;-80
2023/12/06 06:22:40;;;;;;;56.43;27.20;;;;;;;5.08;100.00;94668.81;4970490;28;20271;-78
2023/12/06 06:25:05;;;;;;;15.97;8.00;;;;;;;5.10;100.00;94669.44;4974590;28;20231;-81
2023/12/06 06:27:31;;;;;;;23.87;11.60;;;;;;;5.15;100.00;94669.75;4990227;28;20612;-79
2023/12/06 06:29:56;;;;;;;22.60;10.90;;;;;;;5.10;100.00;94672.03;4966927;28;20227;-79
2023/12/06 06:32:24;;;;;;;45.37;18.40;;;;;;;5.17;100.00;94670.38;4971851;28;20752;-78
2023/12/06 06:34:49;;;;;;;36.40;15.47;;;;;;;5.10;100.00;94676.41;4965434;28;20242;-79
2023/12/06 06:37:15;;;;;;;48.77;18.83;;;;;;;5.20;100.00;94677.00;4959946;28;20231;-79
2023/12/06 06:39:40;;;;;;;34.63;16.97;;;;;;;5.15;100.00;94669.75;4987954;28;20227;-79
2023/12/06 06:42:09;;;;;;;26.23;14.13;;;;;;;5.18;100.00;94673.78;4968408;28;20236;-79
2023/12/06 06:44:34;;;;;;;32.47;19.70;;;;;;;5.28;100.00;94680.34;4954870;28;21058;-80
2023/12/06 06:47:00;;;;;;;21.23;12.20;;;;;;;5.23;100.00;94674.84;4972550;28;20242;-79
2023/12/06 06:49:26;;;;;;;24.87;12.83;;;;;;;5.29;100.00;94674.19;4969151;28;20378;-78
2023/12/06 06:51:51;;;;;;;61.57;30.33;;;;;;;5.37;100.00;94674.09;4958279;28;20314;-79
2023/12/06 06:54:20;;;;;;;30.00;14.97;;;;;;;5.42;100.00;94679.56;4956881;28;20296;-79
2023/12/06 06:56:45;;;;;;;52.20;24.10;;;;;;;5.39;100.00;94676.53;4960985;28;20725;-80
2023/12/06 06:59:11;;;;;;;98.83;38.93;;;;;;;5.29;100.00;94675.97;4960705;28;20322;-74
2023/12/06 07:01:37;;;;;;;44.23;20.07;;;;;;;5.18;100.00;94674.56;4988630;28;20235;-77
2023/12/06 07:04:03;;;;;;;55.37;25.40;;;;;;;5.29;100.00;94673.38;4962802;28;20262;-78
2023/12/06 07:06:30;;;;;;;95.03;31.93;;;;;;;5.22;100.00;94672.44;4988365;28;20239;-78
2023/12/06 07:08:55;;;;;;;37.67;17.23;;;;;;;5.35;100.00;94670.88;4975085;28;20239;-78
2023/12/06 07:11:21;;;;;;;21.93;12.63;;;;;;;5.21;100.00;94669.03;4981595;28;20256;-78
2023/12/06 07:13:48;;;;;;;20.33;10.90;;;;;;;5.33;100.00;94672.84;4974959;28;20267;-79
2023/12/06 07:16:13;;;;;;;19.40;9.27;;;;;;;5.31;100.00;94674.81;4959641;28;20322;-78
2023/12/06 07:18:39;;;;;;;13.93;7.57;;;;;;;5.23;100.00;94674.84;4974949;28;20231;-79
2023/12/06 07:21:05;;;;;;;18.97;8.60;;;;;;;5.33;100.00;94678.03;4975383;28;20386;-78
2023/12/06 07:23:31;;;;;;;17.60;7.40;;;;;;;5.24;100.00;94668.69;4965747;28;20709;-77
2023/12/06 07:25:58;;;;;;;15.03;7.60;;;;;;;5.30;100.00;94673.19;4973403;28;20367;-78
2023/12/06 07:28:23;;;;;;;15.40;7.63;;;;;;;5.22;100.00;94681.03;4981662;28;20314;-77
2023/12/06 07:30:49;;;;;;;15.07;7.20;;;;;;;5.28;100.00;94684.72;4974137;28;20327;-79
2023/12/06 07:33:15;;;;;;;14.93;7.00;;;;;;;5.31;100.00;94680.00;4980400;28;20239;-79
2023/12/06 07:35:41;;;;;;;15.53;7.63;;;;;;;5.33;100.00;94683.22;4979158;28;20314;-79
2023/12/06 07:38:09;;;;;;;13.03;7.17;;;;;;;5.39;100.00;94687.72;4981898;28;20236;-79
2023/12/06 07:40:35;;;;;;;14.97;7.57;;;;;;;5.47;100.00;94689.44;4990748;28;20321;-77
2023/12/06 07:43:03;;;;;;;29.70;14.70;;;;;;;5.47;100.00;94690.25;4975175;28;20873;-79
2023/12/06 07:45:29;;;;;;;21.13;9.93;;;;;;;5.31;100.00;94689.56;4978511;28;20331;-80
2023/12/06 07:47:54;;;;;;;19.07;9.63;;;;;;;5.36;100.00;94693.25;4976263;28;20238;-79
2023/12/06 07:50:20;;;;;;;27.17;13.33;;;;;;;5.37;100.00;94687.06;4970305;28;20327;-83
2023/12/06 07:52:47;;;;;;;20.43;9.77;;;;;;;5.39;100.00;94692.94;4963285;28;20232;-84
2023/12/06 07:55:13;;;;;;;15.47;7.70;;;;;;;5.23;100.00;94687.81;4969122;28;20238;-85
2023/12/06 07:57:39;;;;;;;16.43;8.37;;;;;;;5.24;100.00;94689.44;4962599;28;20359;-86
2023/12/06 08:00:07;;;;;;;15.97;7.57;;;;;;;5.13;100.00;94691.63;4971963;28;20226;-84
2023/12/06 08:02:34;;;;;;;13.90;7.00;;;;;;;5.11;100.00;94691.00;4989091;28;20315;-85
2023/12/06 08:05:03;;;;;;;14.87;7.63;;;;;;;5.11;100.00;94684.00;4978744;28;20658;-84
2023/12/06 08:07:29;;;;;;;17.90;8.17;;;;;;;5.30;100.00;94683.56;4965182;28;20247;-83
2023/12/06 08:09:54;;;;;;;15.47;7.77;;;;;;;5.13;100.00;94694.22;4975654;28;20231;-83
2023/12/06 08:12:20;;;;;;;16.40;7.33;;;;;;;5.18;100.00;94678.97;4993046;28;20236;-85
2023/12/06 08:14:46;;;;;;;16.60;7.67;;;;;;;5.15;100.00;94685.31;4987770;28;20876;-83
2023/12/06 08:17:11;;;;;;;18.83;7.87;;;;;;;5.22;100.00;94681.03;4991119;28;20711;-84
2023/12/06 08:19:37;;;;;;;15.80;7.23;;;;;;;5.30;100.00;94683.56;4978605;28;20235;-76
2023/12/06 08:22:05;;;;;;;15.57;7.30;;;;;;;5.37;100.00;94679.28;4993395;28;20733;-82
2023/12/06 08:24:33;;;;;;;13.53;6.67;;;;;;;5.28;100.00;94688.13;4983071;28;20858;-84
2023/12/06 08:26:58;;;;;;;13.13;6.77;;;;;;;5.27;100.00;94688.31;4981986;28;20247;-72
2023/12/06 08:29:25;;;;;;;13.43;7.07;;;;;;;5.42;100.00;94689.97;4968286;28;20288;-72
2023/12/06 08:31:50;;;;;;;15.20;7.83;;;;;;;5.36;100.00;94693.25;4971086;28;20326;-73
2023/12/06 08:34:16;;;;;;;14.97;7.77;;;;;;;5.51;100.00;94693.31;4976727;28;20246;-72
2023/12/06 08:36:41;;;;;;;15.23;7.20;;;;;;;5.44;100.00;94693.19;4976124;28;20232;-72
2023/12/06 08:39:07;;;;;;;16.50;7.97;;;;;;;5.36;100.00;94688.06;4994440;28;20246;-74
2023/12/06 08:41:33;;;;;;;16.33;7.60;;;;;;;5.29;100.00;94687.16;4979528;28;20996;-72
2023/12/06 08:43:58;;;;;;;56.13;20.00;;;;;;;5.47;100.00;94685.06;4973720;28;20247;-73
2023/12/06 08:46:24;;;;;;;30.90;14.80;;;;;;;5.34;100.00;94684.03;4976973;28;20237;-74
2023/12/06 08:48:50;;;;;;;38.97;19.77;;;;;;;5.49;100.00;94691.88;4979019;28;20262;-74
2023/12/06 08:51:16;;;;;;;23.73;11.37;;;;;;;5.51;100.00;94682.94;4963824;28;20235;-73
2023/12/06 08:53:41;;;;;;;28.20;14.70;;;;;;;5.52;100.00;94683.75;4972769;28;20612;-73
2023/12/06 08:56:10;;;;;;;44.70;21.80;;;;;;;5.60;100.00;94679.28;4972218;28;20260;-73
2023/12/06 08:58:36;;;;;;;39.97;19.40;;;;;;;5.52;100.00;94684.53;4987469;28;20227;-84
2023/12/06 09:01:01;;;;;;;20.67;10.50;;;;;;;5.73;100.00;94676.09;4951043;28;20676;-84
2023/12/06 09:03:27;;;;;;;21.30;10.87;;;;;;;5.69;100.00;94669.63;4973808;28;20750;-72
2023/12/06 09:05:52;;;;;;;21.30;9.77;;;;;;;5.71;100.00;94670.28;4978694;28;20231;-85
2023/12/06 09:08:18;;;;;;;21.30;9.43;;;;;;;5.61;100.00;94672.31;4967550;28;20266;-84
2023/12/06 09:10:44;;;;;;;16.93;9.00;;;;;;;5.66;100.00;94665.59;4973667;28;20447;-86
2023/12/06 09:13:10;;;;;;;18.27;9.47;;;;;;;5.76;100.00;94660.16;4974042;28;20232;-84
2023/12/06 09:15:35;;;;;;;24.80;10.57;;;;;;;5.89;100.00;94668.19;4979954;28;20231;-83
2023/12/06 09:18:01;;;;;;;15.23;7.97;;;;;;;5.86;100.00;94658.97;4990131;28;20259;-84
2023/12/06 09:20:27;;;;;;;16.07;7.83;;;;;;;5.96;100.00;94658.69;4975753;28;20264;-84
2023/12/06 09:22:52;;;;;;;12.83;6.93;;;;;;;6.00;100.00;94646.97;4964043;28;20285;-72
2023/12/06 09:25:18;;;;;;;14.93;7.53;;;;;;;6.01;100.00;94643.41;4996001;28;20243;-83
2023/12/06 09:27:43;;;;;;;19.00;7.67;;;;;;;5.83;100.00;94648.88;4978745;28;20712;-83
2023/12/06 09:30:09;;;;;;;16.17;8.30;;;;;;;5.83;100.00;94642.88;4975059;28;20231;-83
2023/12/06 09:32:35;;;;;;;16.40;8.27;;;;;;;5.95;100.00;94636.31;4977807;28;20971;-83
2023/12/06 09:35:01;;;;;;;199.27;66.63;;;;;;;6.09;100.00;94638.91;4972495;28;20314;-82
2023/12/06 09:37:26;;;;;;;177.67;48.07;;;;;;;6.23;100.00;94641.69;4972939;28;20228;-84
2023/12/06 09:39:53;;;;;;;153.37;50.87;;;;;;;6.15;100.00;94631.38;4989949;28;20235;-83
2023/12/06 09:42:18;;;;;;;84.27;34.10;;;;;;;6.20;100.00;94635.06;4988627;28;20294;-84
2023/12/06 09:44:44;;;;;;;79.97;31.53;;;;;;;6.15;100.00;94632.19;4979629;28;20410;-83
2023/12/06 09:47:13;;;;;;;55.13;27.83;;;;;;;6.21;100.00;94626.28;4973339;28;20381;-83
2023/12/06 09:49:38;;;;;;;38.23;20.93;;;;;;;6.28;100.00;94623.78;4982909;28;20236;-83
2023/12/06 09:52:18;;;;;;;65.40;33.03;;;;;;;6.33;100.00;94622.22;4956227;28;20801;-83
2023/12/06 09:54:44;;;;;;;47.50;24.00;;;;;;;6.47;100.00;94620.63;4961607;28;20227;-82
2023/12/06 09:57:13;;;;;;;29.20;17.67;;;;;;;6.35;100.00;94619.47;4975306;28;20286;-83
2023/12/06 09:59:40;;;;;;;24.67;13.60;;;;;;;6.52;100.00;94619.06;4961857;28;20232;-83
2023/12/06 10:02:05;;;;;;;26.40;15.47;;;;;;;6.51;100.00;94614.06;4975697;28;20236;-84
2023/12/06 10:04:31;;;;;;;33.53;20.50;;;;;;;6.58;100.00;94618.34;4958408;28;20236;-85
2023/12/06 10:06:57;;;;;;;26.93;16.53;;;;;;;6.53;100.00;94612.91;4963339;28;20239;-81
2023/12/06 10:09:23;;;;;;;17.50;9.30;;;;;;;6.49;100.00;94613.44;4979450;28;20239;-82
2023/12/06 10:11:48;;;;;;;13.87;7.70;;;;;;;6.29;100.00;94614.97;4971743;28;20235;-83
2023/12/06 10:14:20;;;;;;;16.33;9.87;;;;;;;6.51;100.00;94607.06;4987646;28;20319;-82
2023/12/06 10:16:47;;;;;;;73.60;41.53;;;;;;;6.39;100.00;94605.94;4980180;28;20232;-84
2023/12/06 10:19:19;;;;;;;46.87;28.63;;;;;;;6.43;100.00;94594.16;4974342;28;21013;-83
2023/12/06 10:21:47;;;;;;;54.70;29.17;;;;;;;6.42;100.00;94602.16;4973056;28;20297;-83
2023/12/06 10:24:12;;;;;;;37.70;18.20;;;;;;;6.22;100.00;94608.91;4969491;28;20833;-85
2023/12/06 10:26:39;;;;;;;47.50;21.43;;;;;;;6.23;100.00;94603.53;4970209;28;20285;-83
2023/12/06 10:29:04;;;;;;;22.10;11.90;;;;;;;6.38;100.00;94604.31;4956029;28;20231;-83
2023/12/06 10:31:42;;;;;;;19.77;10.37;;;;;;;6.32;100.00;94597.25;4971442;28;20238;-83
2023/12/06 10:34:08;;;;;;;27.13;15.27;;;;;;;6.30;100.00;94599.22;4951548;28;20340;-83
2023/12/06 10:36:33;;;;;;;38.30;22.00;;;;;;;6.27;100.00;94589.19;4950500;28;20835;-82
2023/12/06 10:38:59;;;;;;;49.97;27.67;;;;;;;6.40;100.00;94585.94;4959201;28;20228;-83
2023/12/06 10:41:27;;;;;;;44.77;25.97;;;;;;;6.41;100.00;94593.56;4957436;28;20259;-83
2023/12/06 10:43:55;;;;;;;30.10;16.77;;;;;;;6.53;100.00;94588.69;4962099;28;20237;-82
2023/12/06 10:46:21;;;;;;;27.90;14.63;;;;;;;6.37;100.00;94576.72;4956264;28;20235;-84
2023/12/06 10:48:48;;;;;;;29.33;17.60;;;;;;;6.32;100.00;94589.44;4973137;28;20239;-84
2023/12/06 10:51:13;;;;;;;20.70;11.93;;;;;;;6.28;100.00;94587.41;4961520;28;20330;-81
2023/12/06 10:53:39;;;;;;;12.03;7.70;;;;;;;6.16;100.00;94581.88;4978667;28;20299;-83
2023/12/06 10:56:05;;;;;;;17.83;10.07;;;;;;;6.23;100.00;94577.56;4975773;28;20238;-73
2023/12/06 10:58:30;;;;;;;18.03;11.30;;;;;;;6.49;100.00;94574.44;4979905;28;20238;-71
2023/12/06 11:00:56;;;;;;;15.97;8.10;;;;;;;6.28;100.00;94574.41;4981667;28;20840;-73
2023/12/06 11:03:21;;;;;;;19.13;11.33;;;;;;;6.30;100.00;94577.63;4991297;28;20238;-73
2023/12/06 11:05:50;;;;;;;19.63;11.77;;;;;;;6.36;100.00;94574.28;4976026;28;20235;-73
2023/12/06 11:08:35;;;;;;;20.73;10.03;;;;;;;6.38;100.00;94577.50;4975614;28;20235;-73
2023/12/06 11:11:26;;;;;;;50.33;24.80;;;;;;;6.40;100.00;94572.94;4986226;28;20286;-72
2023/12/06 11:14:16;;;;;;;18.20;9.13;;;;;;;6.36;100.00;94574.28;4974465;28;20821;-72
2023/12/06 11:17:04;;;;;;;15.97;9.30;;;;;;;6.36;100.00;94572.50;4980157;28;20239;-73